Weather at Del Bajío International Airport

Public forecast

Using degrees Celsius for public forecast. Weather courtesy of forecast.io.

Current aviation weather report (METAR) for Del Bajío International Airport

Retrieved 2021/08/01 00:42 UTC (25 minutes ago):

MMLO 010042Z 01004KT 10SM SCT030 SCT220 25/14 A3029 RMK 8/508 CB/2QUAD

Aviation forecast (TAF) for Del Bajío International Airport

Forecast is more than 6 hours old.

Retrieved 2021/07/31 18:32 UTC (7 hours ago):

TAF MMLO 311625Z 3118/0118 07005KT P6SM SCT030 BKN220 TEMPO 3123/0103 5SM TSRA BKN020CB FM010300 13005KT P6SM SCT020 BKN250 FM011700 07005KT P6SM SCT020 BKN250